Time;durP1;ratioP1;P1;durP2;ratioP2;P2;SDS_P1;SDS_P2;PMS_P1;PMS_P2;Temp;Humidity;BMP_temperature;BMP_pressure;BME280_temperature;BME280_humidity;BME280_pressure;Samples;Min_cycle;Max_cycle;Signal;HPM_P1;HPM_P2
2024/04/10 00:01:49;;;;;;;14.53;2.87;;;11.20;94.80;;;;;;5490108;26;20813;-57
2024/04/10 00:04:17;;;;;;;15.40;3.63;;;11.20;94.60;;;;;;5490175;26;20519;-56
2024/04/10 00:06:43;;;;;;;8.10;1.87;;;11.20;94.70;;;;;;5489939;26;20900;-57
2024/04/10 00:09:12;;;;;;;19.90;2.33;;;11.20;94.30;;;;;;5489671;26;20452;-57
2024/04/10 00:11:37;;;;;;;8.07;2.10;;;11.20;94.40;;;;;;5490265;26;20214;-57
2024/04/10 00:14:09;;;;;;;14.13;3.10;;;11.20;94.50;;;;;;5489964;26;20491;-56
2024/04/10 00:16:34;;;;;;;16.10;2.67;;;11.20;94.40;;;;;;5489629;26;20700;-57
2024/04/10 00:19:04;;;;;;;13.97;2.70;;;11.20;94.50;;;;;;5489778;26;20546;-56
2024/04/10 00:21:33;;;;;;;14.53;3.30;;;11.20;94.60;;;;;;5489621;26;20684;-56
2024/04/10 00:24:02;;;;;;;17.40;2.90;;;11.20;94.40;;;;;;5489583;26;20440;-56
2024/04/10 00:26:27;;;;;;;17.37;3.50;;;11.20;94.60;;;;;;5489988;26;20492;-57
2024/04/10 00:28:56;;;;;;;12.93;2.93;;;11.10;94.50;;;;;;5489454;26;20818;-57
2024/04/10 00:31:24;;;;;;;20.40;3.83;;;11.10;94.50;;;;;;5489798;26;20318;-56
2024/04/10 00:33:53;;;;;;;14.20;3.00;;;11.20;94.50;;;;;;5489534;26;20800;-56
2024/04/10 00:36:19;;;;;;;11.37;3.63;;;11.10;94.50;;;;;;5490063;26;20464;-57
2024/04/10 00:38:48;;;;;;;16.63;2.70;;;11.10;94.60;;;;;;5490072;26;20475;-57
2024/04/10 00:41:14;;;;;;;10.10;2.63;;;11.10;94.40;;;;;;5490234;26;20898;-57
2024/04/10 00:43:44;;;;;;;11.90;2.70;;;11.10;94.40;;;;;;5490061;26;20831;-56
2024/04/10 00:46:14;;;;;;;12.80;2.60;;;11.10;94.30;;;;;;5489564;26;20459;-57
2024/04/10 00:48:46;;;;;;;11.73;2.87;;;11.10;94.50;;;;;;5489481;26;20456;-56
2024/04/10 00:51:13;;;;;;;14.60;3.50;;;11.10;94.40;;;;;;5488413;26;20518;-57
2024/04/10 00:53:43;;;;;;;15.33;3.00;;;11.10;94.30;;;;;;5489843;26;20557;-57
2024/04/10 00:56:09;;;;;;;9.43;2.60;;;11.10;94.40;;;;;;5489754;26;20451;-57
2024/04/10 00:58:37;;;;;;;15.80;3.33;;;11.00;94.50;;;;;;5489404;26;21040;-57
2024/04/10 01:01:04;;;;;;;12.03;2.67;;;11.00;94.60;;;;;;5489591;26;20558;-57
2024/04/10 01:03:33;;;;;;;15.13;2.67;;;11.00;94.60;;;;;;5489303;26;20467;-57
2024/04/10 01:06:03;;;;;;;10.87;2.50;;;11.00;94.70;;;;;;5489375;26;20895;-56
2024/04/10 01:08:33;;;;;;;8.13;1.83;;;10.80;94.80;;;;;;5489043;26;20467;-56
2024/04/10 01:10:59;;;;;;;9.50;1.70;;;10.80;94.90;;;;;;5488954;26;20459;-56
2024/04/10 01:13:29;;;;;;;9.03;2.30;;;10.80;94.90;;;;;;5488743;26;21115;-56
2024/04/10 01:15:55;;;;;;;13.60;2.60;;;10.90;95.00;;;;;;5488783;26;20455;-56
2024/04/10 01:18:23;;;;;;;12.53;3.50;;;10.90;94.90;;;;;;5488488;26;20507;-56
2024/04/10 01:20:49;;;;;;;12.93;2.77;;;10.90;94.90;;;;;;5488772;26;20447;-56
2024/04/10 01:23:21;;;;;;;13.90;2.70;;;10.80;94.80;;;;;;5488765;26;20455;-56
2024/04/10 01:25:47;;;;;;;14.30;2.83;;;10.90;95.00;;;;;;5488613;26;20499;-56
2024/04/10 01:28:16;;;;;;;17.07;3.47;;;10.90;95.00;;;;;;5488923;26;20519;-56
2024/04/10 01:30:42;;;;;;;8.80;2.23;;;10.90;95.10;;;;;;5488855;26;20989;-56
2024/04/10 01:33:10;;;;;;;12.40;2.33;;;10.90;95.00;;;;;;5488628;26;20448;-56
2024/04/10 01:35:36;;;;;;;10.60;2.33;;;10.90;95.00;;;;;;5488493;26;20218;-56
2024/04/10 01:38:05;;;;;;;12.67;3.33;;;10.90;94.90;;;;;;5488495;26;20895;-56
2024/04/10 01:40:34;;;;;;;15.00;3.10;;;10.80;94.90;;;;;;5488054;26;20451;-56
2024/04/10 01:43:03;;;;;;;13.00;3.03;;;10.80;95.10;;;;;;5488446;26;20838;-56
2024/04/10 01:45:31;;;;;;;12.00;3.13;;;10.80;95.30;;;;;;5488072;26;20560;-56
2024/04/10 01:47:57;;;;;;;15.97;2.70;;;10.80;95.30;;;;;;5488154;26;20870;-56
2024/04/10 01:50:25;;;;;;;16.07;2.80;;;10.70;95.30;;;;;;5487930;26;20452;-56
2024/04/10 01:52:51;;;;;;;12.17;2.87;;;10.70;95.50;;;;;;5488241;26;20313;-56
2024/04/10 01:55:20;;;;;;;16.57;3.70;;;10.60;95.60;;;;;;5488106;26;20459;-56
2024/04/10 01:57:48;;;;;;;8.47;2.40;;;10.60;95.70;;;;;;5487977;26;20230;-56
2024/04/10 02:00:18;;;;;;;12.70;2.60;;;10.60;95.60;;;;;;5487654;26;20930;-56
2024/04/10 02:02:45;;;;;;;11.53;2.50;;;10.60;95.60;;;;;;5491055;26;20463;-56
2024/04/10 02:05:14;;;;;;;17.20;3.97;;;10.60;95.60;;;;;;5491602;26;20538;-56
2024/04/10 02:07:40;;;;;;;17.50;2.93;;;10.60;95.60;;;;;;5491648;26;20483;-56
2024/04/10 02:10:09;;;;;;;13.63;2.80;;;10.60;95.70;;;;;;5491304;26;20863;-56
2024/04/10 02:12:35;;;;;;;10.97;2.53;;;10.60;95.70;;;;;;5492217;26;21095;-56
2024/04/10 02:15:06;;;;;;;6.60;2.47;;;10.60;95.80;;;;;;5491803;26;20447;-56
2024/04/10 02:17:32;;;;;;;25.00;3.57;;;10.60;95.80;;;;;;5491772;26;20652;-56
2024/04/10 02:20:01;;;;;;;12.43;2.63;;;10.50;95.90;;;;;;5491439;26;20561;-56
2024/04/10 02:22:27;;;;;;;7.53;2.00;;;10.50;95.90;;;;;;5491089;26;20218;-56
2024/04/10 02:24:56;;;;;;;7.67;2.60;;;10.50;95.90;;;;;;5491193;26;20509;-56
2024/04/10 02:27:22;;;;;;;12.03;3.10;;;10.50;95.90;;;;;;5491685;26;20569;-56
2024/04/10 02:29:51;;;;;;;18.30;3.27;;;10.50;96.00;;;;;;5491452;26;20455;-56
2024/04/10 02:32:19;;;;;;;14.17;2.60;;;10.40;96.10;;;;;;5491257;26;20210;-56
2024/04/10 02:34:48;;;;;;;12.20;3.00;;;10.40;96.30;;;;;;5491297;26;20507;-56
2024/04/10 02:37:14;;;;;;;12.57;2.73;;;10.40;96.20;;;;;;5491357;26;20487;-56
2024/04/10 02:39:42;;;;;;;9.63;2.30;;;10.40;96.20;;;;;;5491204;26;20812;-56
2024/04/10 02:42:08;;;;;;;12.80;2.37;;;10.40;96.10;;;;;;5491108;26;20215;-56
2024/04/10 02:44:37;;;;;;;15.00;2.67;;;10.50;96.30;;;;;;5491419;26;20619;-56
2024/04/10 02:47:02;;;;;;;18.40;3.60;;;10.50;96.20;;;;;;5491146;26;20241;-56
2024/04/10 02:49:33;;;;;;;12.03;2.40;;;10.50;96.20;;;;;;5491181;26;20452;-56
2024/04/10 02:51:59;;;;;;;8.97;2.50;;;10.50;96.10;;;;;;5490726;26;20218;-56
2024/04/10 02:54:28;;;;;;;9.67;3.10;;;10.50;96.00;;;;;;5491046;26;20503;-56
2024/04/10 02:56:55;;;;;;;15.93;3.07;;;10.40;96.10;;;;;;5491734;26;20659;-56
2024/04/10 02:59:23;;;;;;;21.17;3.50;;;10.40;96.30;;;;;;5490931;26;20538;-56
2024/04/10 03:01:51;;;;;;;13.03;3.20;;;10.30;96.50;;;;;;5491259;26;20844;-56
2024/04/10 03:04:19;;;;;;;11.93;2.67;;;10.20;96.60;;;;;;5491082;26;20561;-56
2024/04/10 03:06:48;;;;;;;9.93;2.63;;;10.20;96.80;;;;;;5490610;26;20500;-56
2024/04/10 03:09:16;;;;;;;15.27;2.53;;;10.20;96.80;;;;;;5490241;26;20516;-56
2024/04/10 03:11:42;;;;;;;7.97;2.87;;;10.20;96.90;;;;;;5491219;26;21052;-56
2024/04/10 03:14:11;;;;;;;11.30;3.77;;;10.10;97.10;;;;;;5489927;26;20565;-56
2024/04/10 03:16:37;;;;;;;13.73;3.43;;;10.10;97.30;;;;;;5490953;26;20306;-56
2024/04/10 03:19:05;;;;;;;11.53;2.70;;;10.10;97.40;;;;;;5490728;26;20479;-56
2024/04/10 03:21:31;;;;;;;12.13;2.60;;;10.10;97.30;;;;;;5490922;26;20219;-56
2024/04/10 03:24:02;;;;;;;19.77;3.70;;;10.00;97.50;;;;;;5490779;26;20515;-56
2024/04/10 03:26:28;;;;;;;13.97;3.03;;;10.10;97.60;;;;;;5490834;26;20314;-56
2024/04/10 03:28:56;;;;;;;21.90;3.30;;;10.10;97.60;;;;;;5490667;26;20467;-56
2024/04/10 03:31:22;;;;;;;8.30;2.77;;;10.10;97.60;;;;;;5490832;26;20250;-56
2024/04/10 03:33:50;;;;;;;7.70;2.13;;;10.10;97.60;;;;;;5490621;26;20567;-56
2024/04/10 03:36:16;;;;;;;10.97;2.60;;;10.10;97.50;;;;;;5490381;26;20230;-56
2024/04/10 03:38:45;;;;;;;13.13;2.50;;;10.10;97.60;;;;;;5490872;26;20969;-56
2024/04/10 03:41:13;;;;;;;9.47;2.37;;;10.10;97.70;;;;;;5490100;26;20226;-56
2024/04/10 03:43:42;;;;;;;14.50;2.73;;;10.10;98.10;;;;;;5490420;26;20460;-57
2024/04/10 03:46:12;;;;;;;8.97;2.90;;;10.10;97.60;;;;;;5490541;26;20447;-56
2024/04/10 03:48:38;;;;;;;15.93;2.77;;;10.10;97.70;;;;;;5491057;26;20455;-56
2024/04/10 03:51:07;;;;;;;10.07;2.40;;;10.10;97.80;;;;;;5490664;26;20459;-56
2024/04/10 03:53:35;;;;;;;10.17;2.27;;;10.10;97.90;;;;;;5490386;26;20855;-56
2024/04/10 03:56:01;;;;;;;16.30;3.90;;;10.00;97.90;;;;;;5490110;26;20590;-56
2024/04/10 03:58:32;;;;;;;12.27;3.37;;;10.00;98.00;;;;;;5490772;26;21040;-56
2024/04/10 04:00:58;;;;;;;16.67;2.70;;;10.10;98.00;;;;;;5490104;26;20211;-56
2024/04/10 04:03:27;;;;;;;10.70;2.50;;;10.10;98.10;;;;;;5489950;26;20577;-56
2024/04/10 04:05:53;;;;;;;9.57;1.97;;;10.10;97.90;;;;;;5489873;26;20260;-56
2024/04/10 04:08:22;;;;;;;13.10;3.13;;;10.10;98.20;;;;;;5489955;26;20467;-56
2024/04/10 04:10:48;;;;;;;8.53;2.47;;;10.00;98.10;;;;;;5489606;26;20210;-56
2024/04/10 04:13:16;;;;;;;13.97;3.70;;;10.00;98.20;;;;;;5490099;26;20508;-56
2024/04/10 04:15:45;;;;;;;12.20;3.00;;;10.00;98.30;;;;;;5490034;26;20218;-56
2024/04/10 04:18:13;;;;;;;10.07;2.30;;;10.10;98.40;;;;;;5489837;26;20865;-56
2024/04/10 04:20:40;;;;;;;8.30;2.20;;;10.00;98.20;;;;;;5490103;26;20456;-56
2024/04/10 04:23:08;;;;;;;10.97;3.10;;;10.10;98.40;;;;;;5489792;26;20456;-56
2024/04/10 04:25:35;;;;;;;10.37;3.13;;;10.00;98.30;;;;;;5490238;26;20500;-56
2024/04/10 04:28:03;;;;;;;13.30;2.67;;;10.10;98.30;;;;;;5489674;26;20519;-56
2024/04/10 04:30:29;;;;;;;8.37;2.60;;;10.10;98.30;;;;;;5489995;26;20463;-56
2024/04/10 04:33:01;;;;;;;10.77;2.80;;;10.10;98.30;;;;;;5490161;26;20553;-56
2024/04/10 04:35:27;;;;;;;14.10;3.20;;;10.00;98.30;;;;;;5490398;26;20549;-56
2024/04/10 04:37:58;;;;;;;10.07;3.00;;;10.10;98.40;;;;;;5490068;26;20463;-56
2024/04/10 04:40:30;;;;;;;9.53;2.93;;;10.00;98.50;;;;;;5489811;26;20210;-56
2024/04/10 04:42:59;;;;;;;12.47;3.07;;;10.00;98.50;;;;;;5489526;26;20530;-56
2024/04/10 04:45:25;;;;;;;7.60;2.13;;;10.00;98.60;;;;;;5489650;26;20443;-56
2024/04/10 04:47:53;;;;;;;11.77;2.57;;;10.00;98.60;;;;;;5489676;26;20467;-56
2024/04/10 04:50:22;;;;;;;11.60;2.27;;;10.00;98.70;;;;;;5489708;26;20469;-56
2024/04/10 04:52:50;;;;;;;10.10;2.50;;;10.00;98.80;;;;;;5489895;26;20525;-56
2024/04/10 04:55:16;;;;;;;16.00;3.77;;;10.00;98.70;;;;;;5490624;26;20463;-56
2024/04/10 04:57:45;;;;;;;12.27;2.90;;;9.90;99.40;;;;;;5490000;26;21082;-56
2024/04/10 05:00:14;;;;;;;14.93;4.63;;;9.90;99.50;;;;;;5490003;26;20226;-57
2024/04/10 05:02:42;;;;;;;10.33;2.63;;;9.90;99.50;;;;;;5490007;26;20644;-57
2024/04/10 05:05:11;;;;;;;11.60;3.30;;;10.00;99.00;;;;;;5489580;26;20565;-56
2024/04/10 05:07:43;;;;;;;12.20;3.27;;;9.90;99.60;;;;;;5490009;26;20471;-57
2024/04/10 05:10:09;;;;;;;15.60;3.47;;;10.00;99.20;;;;;;5489727;26;20492;-56
2024/04/10 05:12:40;;;;;;;9.63;2.80;;;10.00;99.20;;;;;;5489511;26;20456;-56
2024/04/10 05:15:07;;;;;;;6.53;2.63;;;10.00;99.20;;;;;;5489534;26;20471;-56
2024/04/10 05:17:36;;;;;;;11.33;2.57;;;10.00;99.40;;;;;;5489577;26;20511;-56
2024/04/10 05:20:03;;;;;;;11.70;2.93;;;9.90;99.90;;;;;;5489408;26;20507;-56
2024/04/10 05:22:31;;;;;;;14.63;3.23;;;10.00;99.70;;;;;;5489840;26;20444;-56
2024/04/10 05:25:00;;;;;;;10.13;2.77;;;10.00;99.60;;;;;;5489451;26;20555;-56
2024/04/10 05:27:30;;;;;;;11.23;2.60;;;10.00;99.60;;;;;;5489267;26;20516;-56
2024/04/10 05:29:56;;;;;;;18.73;3.73;;;10.00;99.60;;;;;;5489501;26;20459;-56
2024/04/10 05:32:25;;;;;;;13.23;3.60;;;10.00;99.70;;;;;;5489468;26;20463;-56
2024/04/10 05:34:52;;;;;;;12.33;3.23;;;10.10;99.60;;;;;;5489189;26;20553;-56
2024/04/10 05:37:21;;;;;;;7.57;2.33;;;10.10;99.70;;;;;;5491189;26;20471;-56
2024/04/10 05:39:48;;;;;;;20.07;3.40;;;10.10;99.60;;;;;;5492581;26;20561;-56
2024/04/10 05:42:19;;;;;;;15.93;3.50;;;10.20;99.60;;;;;;5492852;26;20467;-56
2024/04/10 05:44:45;;;;;;;9.70;3.03;;;10.30;99.50;;;;;;5492694;26;20468;-56
2024/04/10 05:47:14;;;;;;;14.33;3.13;;;10.30;99.30;;;;;;5492578;26;20908;-56
2024/04/10 05:49:40;;;;;;;9.97;2.70;;;10.40;99.10;;;;;;5492760;26;20557;-56
2024/04/10 05:52:08;;;;;;;17.77;4.90;;;10.50;99.10;;;;;;5492448;26;20467;-56
2024/04/10 05:54:34;;;;;;;10.60;2.50;;;10.50;98.90;;;;;;5492593;26;20315;-57
2024/04/10 05:57:02;;;;;;;17.17;3.60;;;10.50;98.90;;;;;;5492628;26;20439;-56
2024/04/10 05:59:31;;;;;;;11.57;2.77;;;10.60;99.10;;;;;;5492420;26;20223;-56
2024/04/10 06:01:59;;;;;;;11.03;2.87;;;10.60;98.90;;;;;;5492492;26;20866;-57
2024/04/10 06:04:25;;;;;;;13.17;3.30;;;10.60;98.90;;;;;;5492732;26;20499;-56
2024/04/10 06:06:54;;;;;;;11.27;2.60;;;10.70;98.70;;;;;;5492314;26;20443;-56
2024/04/10 06:09:20;;;;;;;14.37;2.80;;;10.70;98.60;;;;;;5492238;26;20546;-56
2024/04/10 06:11:48;;;;;;;13.17;3.47;;;10.80;98.40;;;;;;5492431;26;20451;-56
2024/04/10 06:14:14;;;;;;;11.87;2.97;;;10.80;98.40;;;;;;5492600;26;20607;-56
2024/04/10 06:16:45;;;;;;;10.57;2.73;;;10.80;98.20;;;;;;5492258;26;20491;-56
2024/04/10 06:19:11;;;;;;;12.30;3.10;;;10.80;98.10;;;;;;5492324;26;20234;-56
2024/04/10 06:21:39;;;;;;;10.33;2.70;;;10.80;98.00;;;;;;5491869;26;20447;-56
2024/04/10 06:24:08;;;;;;;15.53;3.00;;;10.80;98.10;;;;;;5492555;26;20735;-56
2024/04/10 06:26:34;;;;;;;11.80;2.67;;;10.80;98.00;;;;;;5492045;26;20451;-56
2024/04/10 06:29:03;;;;;;;13.17;3.03;;;10.80;98.30;;;;;;5492012;26;20455;-56
2024/04/10 06:31:28;;;;;;;12.70;3.37;;;10.80;98.20;;;;;;5492181;26;20370;-56
2024/04/10 06:34:00;;;;;;;14.10;3.10;;;10.90;98.30;;;;;;5492352;26;20484;-56
2024/04/10 06:36:25;;;;;;;10.60;3.00;;;10.80;98.00;;;;;;5492341;26;20717;-56
2024/04/10 06:38:54;;;;;;;13.60;3.40;;;10.90;98.30;;;;;;5492011;26;20452;-56
2024/04/10 06:41:20;;;;;;;14.97;2.90;;;10.90;98.20;;;;;;5492152;26;20230;-56
2024/04/10 06:43:48;;;;;;;10.40;2.90;;;10.90;98.30;;;;;;5491952;26;20455;-56
2024/04/10 06:46:16;;;;;;;14.80;2.70;;;11.00;98.30;;;;;;5492002;26;20215;-56
2024/04/10 06:48:44;;;;;;;12.27;3.20;;;11.10;98.70;;;;;;5490375;26;20519;-56
2024/04/10 06:51:13;;;;;;;16.93;4.00;;;11.20;98.50;;;;;;5491955;26;20492;-56
2024/04/10 06:53:42;;;;;;;14.00;3.80;;;11.30;97.80;;;;;;5491800;26;20439;-56
2024/04/10 06:56:09;;;;;;;8.73;3.07;;;11.40;97.40;;;;;;5492130;26;20447;-56
2024/04/10 06:58:38;;;;;;;10.90;3.43;;;11.50;97.20;;;;;;5491964;26;20996;-56
2024/04/10 07:01:06;;;;;;;11.17;4.20;;;11.70;97.00;;;;;;5492236;26;20443;-56
2024/04/10 07:03:36;;;;;;;10.73;3.67;;;11.70;96.70;;;;;;5491811;26;20523;-57
2024/04/10 07:06:04;;;;;;;15.90;4.17;;;11.80;96.80;;;;;;5491991;26;20455;-57
2024/04/10 07:08:35;;;;;;;14.53;4.27;;;11.80;96.50;;;;;;5491657;26;21115;-57
2024/04/10 07:11:04;;;;;;;10.33;2.97;;;11.90;96.50;;;;;;5491745;26;20467;-57
2024/04/10 07:13:30;;;;;;;13.80;3.43;;;11.80;96.30;;;;;;5491789;26;20455;-57
2024/04/10 07:16:00;;;;;;;12.83;2.90;;;12.00;95.80;;;;;;5491568;26;20451;-56
2024/04/10 07:18:27;;;;;;;11.73;3.23;;;12.00;96.00;;;;;;5491542;26;20475;-56
2024/04/10 07:21:03;;;;;;;7.00;3.10;;;12.00;95.90;;;;;;5491595;26;20451;-56
2024/04/10 07:23:32;;;;;;;13.50;3.50;;;11.90;95.60;;;;;;5491654;26;20549;-57
2024/04/10 07:26:12;;;;;;;10.17;3.60;;;11.90;95.70;;;;;;5491437;26;20511;-56
2024/04/10 07:28:40;;;;;;;14.77;4.30;;;12.00;95.70;;;;;;5491653;26;20459;-56
2024/04/10 07:31:09;;;;;;;13.37;3.47;;;11.90;96.20;;;;;;5492176;26;20562;-56
2024/04/10 07:33:35;;;;;;;9.47;3.50;;;12.00;96.60;;;;;;5491867;26;20543;-56
2024/04/10 07:36:14;;;;;;;12.83;3.93;;;12.10;97.20;;;;;;5491626;26;20503;-56
2024/04/10 07:38:42;;;;;;;5.77;2.37;;;12.20;96.40;;;;;;5491581;26;20227;-57
2024/04/10 07:41:12;;;;;;;10.47;3.47;;;12.30;95.80;;;;;;5491356;26;20447;-56
2024/04/10 07:43:38;;;;;;;16.67;3.67;;;12.30;95.30;;;;;;5491919;26;20501;-56
2024/04/10 07:46:11;;;;;;;9.63;3.23;;;12.30;95.30;;;;;;5491563;26;20499;-56
2024/04/10 07:48:38;;;;;;;8.03;3.13;;;12.40;95.50;;;;;;5491262;26;20467;-56
2024/04/10 07:51:07;;;;;;;13.00;4.20;;;12.50;95.20;;;;;;5492251;26;20451;-57
2024/04/10 07:53:35;;;;;;;13.87;3.53;;;12.60;94.90;;;;;;5492105;26;20448;-56
2024/04/10 07:56:07;;;;;;;11.87;3.37;;;12.60;94.90;;;;;;5491946;26;20877;-56
2024/04/10 07:58:34;;;;;;;9.80;3.27;;;12.60;94.70;;;;;;5491967;26;20958;-56
2024/04/10 08:01:03;;;;;;;8.70;3.20;;;12.70;95.10;;;;;;5491739;26;20447;-62
2024/04/10 08:03:30;;;;;;;9.30;3.53;;;12.70;94.90;;;;;;5492595;26;20565;-56
2024/04/10 08:05:59;;;;;;;12.47;3.03;;;12.80;94.10;;;;;;5492339;26;21030;-56
2024/04/10 08:08:25;;;;;;;11.30;3.27;;;12.90;93.80;;;;;;5492009;26;20460;-57
2024/04/10 08:11:00;;;;;;;11.93;3.40;;;12.90;93.60;;;;;;5493086;26;20463;-56
2024/04/10 08:13:29;;;;;;;9.53;3.20;;;13.00;94.30;;;;;;5493825;26;20929;-57
2024/04/10 08:15:59;;;;;;;14.40;3.40;;;13.10;93.70;;;;;;5492367;26;20447;-57
2024/04/10 08:18:26;;;;;;;11.37;3.00;;;13.20;93.30;;;;;;5492656;26;20459;-57
2024/04/10 08:21:02;;;;;;;12.13;3.80;;;13.40;93.30;;;;;;5493527;26;20989;-56
2024/04/10 08:23:29;;;;;;;10.20;3.73;;;13.60;93.20;;;;;;5494851;26;21052;-57
2024/04/10 08:25:57;;;;;;;13.23;3.57;;;13.80;92.90;;;;;;5494713;26;20455;-56
2024/04/10 08:28:25;;;;;;;6.93;2.70;;;13.90;92.20;;;;;;5494491;26;20835;-56
2024/04/10 08:30:57;;;;;;;10.63;3.00;;;14.10;92.40;;;;;;5495186;26;20443;-56
2024/04/10 08:33:26;;;;;;;6.17;2.57;;;14.30;90.90;;;;;;5494516;26;20495;-56
2024/04/10 08:35:59;;;;;;;7.57;2.57;;;14.40;90.20;;;;;;5490367;26;20456;-57
2024/04/10 08:38:25;;;;;;;13.47;3.10;;;14.50;89.30;;;;;;5490320;26;20594;-57
2024/04/10 08:40:58;;;;;;;8.63;3.10;;;14.60;88.90;;;;;;5490070;26;20453;-57
2024/04/10 08:43:26;;;;;;;9.03;2.70;;;14.70;87.20;;;;;;5490241;26;20459;-56
2024/04/10 08:45:58;;;;;;;8.87;3.53;;;14.90;89.00;;;;;;5489912;26;20448;-57
2024/04/10 08:48:25;;;;;;;8.40;2.93;;;15.20;86.40;;;;;;5489974;26;20487;-57
2024/04/10 08:50:55;;;;;;;7.73;2.83;;;15.50;85.00;;;;;;5489967;26;20491;-56
2024/04/10 08:53:23;;;;;;;7.43;2.30;;;15.80;81.60;;;;;;5489848;26;20444;-57
2024/04/10 08:55:53;;;;;;;7.43;2.37;;;16.00;79.30;;;;;;5489799;26;20515;-58
2024/04/10 08:58:19;;;;;;;9.77;2.47;;;16.20;77.50;;;;;;5489706;26;20569;-57
2024/04/10 09:00:48;;;;;;;8.13;2.30;;;16.10;77.00;;;;;;5489535;26;20459;-56
2024/04/10 09:03:16;;;;;;;6.50;1.77;;;16.00;74.90;;;;;;5489519;26;21095;-56
2024/04/10 09:05:44;;;;;;;9.87;2.33;;;15.90;74.10;;;;;;5489675;26;20495;-56
2024/04/10 09:08:10;;;;;;;9.67;2.60;;;15.70;73.90;;;;;;5489436;26;20833;-56
2024/04/10 09:10:39;;;;;;;7.73;2.57;;;15.70;74.10;;;;;;5488888;26;20550;-56
2024/04/10 09:13:08;;;;;;;7.30;2.13;;;15.70;73.20;;;;;;5489258;26;20455;-56
2024/04/10 09:15:37;;;;;;;5.57;1.90;;;15.60;73.80;;;;;;5489282;26;20452;-57
2024/04/10 09:18:05;;;;;;;9.33;2.50;;;15.60;71.10;;;;;;5489203;26;20467;-56
2024/04/10 09:20:36;;;;;;;5.87;1.53;;;15.60;70.80;;;;;;5489451;26;20797;-57
2024/04/10 09:23:04;;;;;;;6.77;2.10;;;15.60;72.10;;;;;;5489342;26;20444;-57
2024/04/10 09:25:33;;;;;;;6.23;2.47;;;15.70;71.40;;;;;;5489291;26;20535;-56
2024/04/10 09:28:00;;;;;;;7.97;2.80;;;15.70;75.00;;;;;;5488972;26;20511;-56
2024/04/10 09:30:28;;;;;;;7.70;2.40;;;16.00;73.60;;;;;;5489025;26;20495;-57
2024/04/10 09:32:54;;;;;;;5.57;2.00;;;16.30;71.60;;;;;;5489108;26;20557;-57
2024/04/10 09:35:23;;;;;;;7.27;1.87;;;16.50;70.50;;;;;;5489246;26;20443;-56
2024/04/10 09:37:54;;;;;;;8.33;2.37;;;16.60;69.80;;;;;;5489174;26;20579;-57
2024/04/10 09:40:26;;;;;;;4.57;2.13;;;16.70;68.30;;;;;;5488776;26;20443;-56
2024/04/10 09:43:02;;;;;;;6.80;2.67;;;16.90;67.90;;;;;;5488957;26;20500;-56
2024/04/10 09:45:37;;;;;;;17.47;2.73;;;17.20;68.40;;;;;;5488885;26;20443;-57
2024/04/10 09:48:08;;;;;;;6.73;1.90;;;17.50;68.30;;;;;;5488838;26;20455;-57
2024/04/10 09:50:38;;;;;;;6.47;2.27;;;17.70;66.00;;;;;;5489036;26;20507;-57
2024/04/10 09:53:07;;;;;;;9.77;2.90;;;18.00;66.30;;;;;;5488893;26;20451;-57
2024/04/10 09:55:38;;;;;;;6.60;2.50;;;18.20;64.90;;;;;;5488561;26;20448;-57
2024/04/10 09:58:06;;;;;;;9.67;3.17;;;18.40;62.10;;;;;;5488745;26;20464;-57
2024/04/10 10:00:36;;;;;;;7.93;1.90;;;18.60;61.60;;;;;;5488604;26;20488;-57
2024/04/10 10:03:05;;;;;;;5.20;2.40;;;18.70;60.80;;;;;;5489087;26;20502;-57
2024/04/10 10:05:34;;;;;;;6.23;2.20;;;18.70;61.00;;;;;;5488746;26;20573;-56
2024/04/10 10:08:12;;;;;;;8.80;2.63;;;18.60;59.60;;;;;;5488524;26;20511;-56
2024/04/10 10:10:49;;;;;;;9.57;2.43;;;18.60;58.80;;;;;;5488630;26;20574;-56
2024/04/10 10:13:25;;;;;;;6.43;1.93;;;18.60;60.50;;;;;;5488842;26;20511;-57
2024/04/10 10:15:58;;;;;;;5.57;2.10;;;18.70;59.60;;;;;;5488353;26;20458;-57
2024/04/10 10:18:26;;;;;;;9.80;2.23;;;18.70;59.10;;;;;;5488564;26;20804;-57
2024/04/10 10:21:06;;;;;;;4.57;2.03;;;18.50;58.50;;;;;;5488444;26;20447;-57
2024/04/10 10:23:35;;;;;;;8.43;2.37;;;18.30;58.60;;;;;;5491022;26;20499;-56
2024/04/10 10:26:05;;;;;;;6.10;1.97;;;18.30;59.70;;;;;;5492118;26;20447;-57
2024/04/10 10:28:31;;;;;;;5.40;2.20;;;18.50;58.60;;;;;;5491962;26;20467;-56
2024/04/10 10:31:14;;;;;;;7.80;2.57;;;19.00;58.10;;;;;;5492034;26;20801;-57
2024/04/10 10:33:41;;;;;;;6.27;2.23;;;19.30;56.40;;;;;;5492052;26;20455;-57
2024/04/10 10:36:10;;;;;;;6.07;2.67;;;19.30;56.50;;;;;;5492097;26;20452;-56
2024/04/10 10:38:40;;;;;;;8.33;2.10;;;19.30;56.50;;;;;;5491897;26;20512;-57
2024/04/10 10:41:10;;;;;;;7.77;2.07;;;19.20;55.20;;;;;;5492065;26;20502;-57
2024/04/10 10:43:36;;;;;;;5.33;1.60;;;19.30;52.70;;;;;;5491925;26;20511;-57
2024/04/10 10:46:05;;;;;;;5.03;2.33;;;19.60;52.90;;;;;;5491796;26;20574;-56
2024/04/10 10:48:31;;;;;;;9.07;2.70;;;19.70;52.40;;;;;;5491767;26;20475;-57
2024/04/10 10:51:01;;;;;;;8.83;1.87;;;19.50;50.90;;;;;;5491884;26;20867;-57
2024/04/10 10:53:27;;;;;;;7.07;2.23;;;19.90;52.30;;;;;;5491813;26;20447;-56
2024/04/10 10:55:59;;;;;;;5.63;1.90;;;20.70;50.90;;;;;;5491825;26;21029;-57
2024/04/10 10:58:25;;;;;;;6.73;2.23;;;21.00;48.10;;;;;;5491807;26;20519;-57
2024/04/10 11:00:55;;;;;;;8.20;2.30;;;21.30;48.20;;;;;;5491578;26;20775;-57
2024/04/10 11:03:22;;;;;;;4.23;2.30;;;21.50;47.70;;;;;;5491482;26;20573;-57
2024/04/10 11:05:50;;;;;;;5.27;2.50;;;22.10;46.70;;;;;;5491636;26;20453;-57
2024/04/10 11:08:21;;;;;;;5.50;1.90;;;22.80;44.50;;;;;;5491516;26;20475;-57
2024/04/10 11:10:50;;;;;;;9.00;2.07;;;23.40;44.30;;;;;;5491524;26;20523;-57
2024/04/10 11:13:18;;;;;;;3.53;1.70;;;24.40;42.80;;;;;;5491407;26;20443;-57
2024/04/10 11:15:49;;;;;;;5.33;1.87;;;25.40;40.00;;;;;;5491215;26;20452;-57
2024/04/10 11:18:15;;;;;;;5.17;2.17;;;25.70;38.40;;;;;;5491338;26;20500;-57
2024/04/10 11:20:44;;;;;;;6.83;2.33;;;25.70;38.10;;;;;;5491344;26;20448;-57
2024/04/10 11:23:10;;;;;;;8.10;2.50;;;26.20;36.80;;;;;;5491261;26;20542;-57
2024/04/10 11:25:39;;;;;;;6.53;2.00;;;26.50;35.80;;;;;;5491378;26;21070;-57
2024/04/10 11:28:07;;;;;;;5.33;1.93;;;26.60;34.90;;;;;;5491163;26;20523;-57
2024/04/10 11:30:38;;;;;;;6.90;2.33;;;26.90;34.50;;;;;;5491219;26;20874;-57
2024/04/10 11:33:06;;;;;;;5.70;2.37;;;27.30;34.60;;;;;;5491255;26;20816;-57
2024/04/10 11:35:37;;;;;;;7.47;2.40;;;27.00;33.40;;;;;;5490370;26;20552;-57
2024/04/10 11:38:03;;;;;;;3.20;1.83;;;26.80;34.00;;;;;;5491197;26;20451;-57
2024/04/10 11:40:32;;;;;;;6.70;2.10;;;26.50;33.50;;;;;;5490926;26;20568;-57
2024/04/10 11:42:57;;;;;;;4.00;1.93;;;26.80;34.70;;;;;;5491001;26;21037;-57
2024/04/10 11:45:26;;;;;;;6.30;2.40;;;27.50;32.50;;;;;;5490892;26;20452;-57
2024/04/10 11:47:55;;;;;;;4.00;1.80;;;27.50;30.60;;;;;;5491010;26;20519;-57
2024/04/10 11:50:24;;;;;;;4.33;1.70;;;27.20;32.00;;;;;;5490781;26;20448;-57
2024/04/10 11:52:50;;;;;;;3.87;1.87;;;27.50;32.90;;;;;;5490484;26;20980;-57
2024/04/10 11:55:18;;;;;;;4.07;2.00;;;28.40;33.10;;;;;;5490902;26;20560;-57
2024/04/10 11:57:45;;;;;;;6.60;2.00;;;28.80;30.00;;;;;;5490687;26;20322;-57
2024/04/10 12:00:14;;;;;;;4.77;2.00;;;29.30;31.20;;;;;;5490641;26;21032;-57
2024/04/10 12:02:40;;;;;;;4.90;2.17;;;30.10;28.70;;;;;;5490229;26;20470;-58
2024/04/10 12:05:11;;;;;;;5.60;2.17;;;30.80;27.40;;;;;;5490672;26;20495;-55
2024/04/10 12:07:38;;;;;;;5.27;2.00;;;31.40;26.60;;;;;;5490555;26;20689;-54
2024/04/10 12:10:08;;;;;;;4.37;2.17;;;32.20;26.00;;;;;;5490631;26;20503;-55
2024/04/10 12:12:34;;;;;;;3.73;1.70;;;32.80;24.60;;;;;;5490642;26;20499;-55
2024/04/10 12:15:05;;;;;;;4.97;2.47;;;33.30;23.50;;;;;;5490684;26;20466;-55
2024/04/10 12:17:32;;;;;;;4.70;1.90;;;33.00;22.10;;;;;;5490442;26;21031;-55
2024/04/10 12:20:01;;;;;;;3.37;1.70;;;32.40;22.00;;;;;;5490506;26;20646;-55
2024/04/10 12:22:32;;;;;;;4.10;2.20;;;31.90;23.40;;;;;;5490230;26;20447;-55
2024/04/10 12:24:58;;;;;;;6.07;2.40;;;31.40;23.60;;;;;;5490292;26;20563;-54
2024/04/10 12:27:27;;;;;;;5.67;2.20;;;30.50;24.80;;;;;;5490137;26;20486;-54
2024/04/10 12:29:53;;;;;;;3.97;2.10;;;29.20;26.20;;;;;;5490258;26;20218;-54
2024/04/10 12:32:22;;;;;;;6.13;2.07;;;27.90;28.10;;;;;;5489969;26;20536;-57
2024/04/10 12:34:48;;;;;;;7.13;2.07;;;27.50;29.30;;;;;;5490662;26;20249;-55
2024/04/10 12:40:03;;;;;;;7.40;2.23;;;28.40;28.20;;;;;;5493088;26;20248;-55
2024/04/10 12:42:31;;;;;;;5.17;1.93;;;28.60;27.00;;;;;;5489895;26;20447;-56
2024/04/10 12:45:00;;;;;;;4.83;1.90;;;28.30;27.20;;;;;;5489978;26;20988;-55
2024/04/10 12:47:26;;;;;;;4.90;1.70;;;27.70;27.50;;;;;;5488829;26;20599;-55
2024/04/10 12:49:55;;;;;;;6.90;1.70;;;27.30;28.20;;;;;;5490007;26;20456;-55